createdAt,value
2019-06-08T00:05:58.787Z,15.50
2019-06-08T00:16:00.070Z,15.40
2019-06-08T00:26:01.366Z,15.40
2019-06-08T00:36:02.793Z,15.40
2019-06-08T00:46:04.328Z,15.20
2019-06-08T01:06:15.122Z,15.00
2019-06-08T01:16:18.823Z,14.90
2019-06-08T01:26:22.346Z,14.80
2019-06-08T04:33:00.342Z,15.30
2019-06-08T04:43:02.395Z,16.60
2019-06-08T04:53:03.731Z,16.60
2019-06-08T05:03:05.054Z,16.90
2019-06-08T05:13:07.131Z,17.70
2019-06-08T05:23:08.442Z,17.70
2019-06-08T05:33:10.496Z,19.70
2019-06-08T06:03:26.137Z,20.90
2019-06-08T06:13:27.642Z,21.20
2019-06-08T06:23:29.690Z,23.00
2019-06-08T06:33:30.982Z,22.90
2019-06-08T06:43:32.261Z,23.10
2019-06-08T06:53:33.642Z,24.50
2019-06-08T07:03:35.698Z,25.20
2019-06-08T07:23:49.366Z,25.50
2019-06-08T07:33:51.546Z,26.50
2019-06-08T07:43:52.292Z,27.30
2019-06-08T07:53:53.568Z,31.00
2019-06-08T08:14:00.725Z,32.00
2019-06-08T08:24:02.011Z,31.10
2019-06-08T08:34:05.761Z,31.60
2019-06-08T08:44:04.926Z,32.40
2019-06-08T08:54:08.487Z,33.00
2019-06-08T09:04:08.859Z,33.40
2019-06-08T09:24:18.636Z,34.50
2019-06-08T09:44:27.929Z,35.40
2019-06-08T09:54:28.275Z,35.10
2019-06-08T10:04:29.150Z,36.30
2019-06-08T10:14:29.536Z,35.80
2019-06-08T10:24:30.844Z,31.80
2019-06-08T10:34:32.157Z,30.00
2019-06-08T10:44:34.222Z,27.80
2019-06-08T10:54:37.696Z,27.70
2019-06-08T11:04:38.781Z,27.50
2019-06-08T11:14:40.606Z,28.50
2019-06-08T11:24:40.295Z,29.60
2019-06-08T11:34:41.570Z,29.50
2019-06-08T11:44:42.878Z,28.40
2019-06-08T11:54:44.903Z,27.80
2019-06-08T12:04:46.174Z,27.80
2019-06-08T12:14:48.249Z,26.60
2019-06-08T12:24:49.554Z,26.60
2019-06-08T12:34:50.850Z,27.20
2019-06-08T12:44:52.142Z,27.10
2019-06-08T12:54:59.992Z,26.40
2019-06-08T13:04:54.713Z,26.40
2019-06-08T13:14:58.054Z,27.00
2019-06-08T13:25:10.275Z,26.80
2019-06-08T13:34:58.670Z,27.00
2019-06-08T13:44:59.940Z,27.50
2019-06-08T13:55:01.220Z,27.30
2019-06-08T14:05:02.543Z,26.70
2019-06-08T14:15:03.825Z,26.60
2019-06-08T14:25:05.113Z,26.50
2019-06-08T14:35:08.414Z,26.00
2019-06-08T14:45:10.968Z,25.90
2019-06-08T14:55:09.785Z,25.80
2019-06-08T15:05:11.039Z,25.50
2019-06-08T15:15:12.323Z,25.40
2019-06-08T15:25:19.119Z,25.30
2019-06-08T15:35:21.072Z,25.20
2019-06-08T15:45:22.053Z,24.90
2019-06-08T15:55:24.696Z,24.80
2019-06-08T16:05:25.606Z,24.80
2019-06-08T16:15:27.249Z,24.70
2019-06-08T16:25:29.608Z,24.60
2019-06-08T16:35:31.296Z,24.20
2019-06-08T16:45:31.325Z,24.10
2019-06-08T16:55:33.682Z,24.10
2019-06-08T17:05:35.206Z,23.80
2019-06-08T17:15:36.111Z,23.80
2019-06-08T17:25:36.666Z,23.70
2019-06-08T17:35:37.805Z,23.50
2019-06-08T17:45:39.487Z,23.30
2019-06-08T17:55:41.810Z,23.10
2019-06-08T18:05:42.831Z,23.00
2019-06-08T18:15:44.929Z,22.70
2019-06-08T18:25:47.899Z,22.60
2019-06-08T18:35:49.110Z,22.60
2019-06-08T18:45:48.443Z,22.40
2019-06-08T18:55:50.429Z,22.20
2019-06-08T19:05:52.057Z,22.10
2019-06-08T19:15:52.923Z,21.80
2019-06-08T19:25:52.970Z,21.40
2019-06-08T19:35:54.297Z,21.20
2019-06-08T19:45:57.800Z,20.80
2019-06-08T19:55:57.193Z,20.30
2019-06-08T20:05:58.189Z,19.90
2019-06-08T20:16:02.123Z,19.50
2019-06-08T20:26:00.985Z,19.40
2019-06-08T20:36:02.872Z,18.80
2019-06-08T20:46:04.903Z,18.50
2019-06-08T20:56:08.010Z,18.50
2019-06-08T21:06:07.757Z,18.00
2019-06-08T21:16:08.794Z,17.50
2019-06-08T21:26:10.112Z,17.40
2019-06-08T21:36:11.395Z,17.10
2019-06-08T21:46:13.110Z,17.00
2019-06-08T21:56:14.402Z,16.80
2019-06-08T22:06:17.585Z,16.80
2019-06-08T22:16:17.773Z,16.80
2019-06-08T22:26:19.051Z,16.80
2019-06-08T22:36:21.097Z,17.10
2019-06-08T22:46:23.183Z,17.20
2019-06-08T22:56:27.474Z,17.30
2019-06-08T23:06:28.046Z,17.30
2019-06-08T23:16:27.830Z,17.30
2019-06-08T23:26:29.106Z,17.20
2019-06-08T23:36:46.731Z,17.30
2019-06-08T23:46:31.743Z,17.30
2019-06-08T23:56:33.022Z,17.40
